Time;durP1;ratioP1;P1;durP2;ratioP2;P2;SDS_P1;SDS_P2;PMS_P1;PMS_P2;Temp;Humidity;BMP_temperature;BMP_pressure;BME280_temperature;BME280_humidity;BME280_pressure;Samples;Min_cycle;Max_cycle;Signal;HPM_P1;HPM_P2
2024/04/17 00:01:42;;;;;;;1999.90;999.90;;;10.50;99.90;;;;;;5311974;26;20053;-73
2024/04/17 00:04:08;;;;;;;1999.90;999.90;;;10.50;99.90;;;;;;5313594;26;20025;-72
2024/04/17 00:06:35;;;;;;;1999.90;999.90;;;10.50;99.90;;;;;;5312317;26;20032;-73
2024/04/17 00:09:01;;;;;;;1999.90;999.90;;;10.50;99.90;;;;;;5310810;27;20470;-72
2024/04/17 00:11:27;;;;;;;1999.90;999.90;;;10.50;99.90;;;;;;5312276;26;20030;-73
2024/04/17 00:13:53;;;;;;;1999.90;999.90;;;10.40;99.90;;;;;;5310938;27;20478;-73
2024/04/17 00:16:19;;;;;;;1999.90;999.90;;;10.30;99.90;;;;;;5311886;26;20038;-72
2024/04/17 00:18:45;;;;;;;1999.90;999.90;;;10.40;99.90;;;;;;5313311;26;20486;-72
2024/04/17 00:21:11;;;;;;;1999.90;999.90;;;10.30;99.90;;;;;;5312585;26;20568;-72
2024/04/17 00:23:37;;;;;;;1999.90;999.90;;;10.30;99.90;;;;;;5312253;27;20030;-73
2024/04/17 00:26:04;;;;;;;1999.90;999.90;;;10.30;99.90;;;;;;5312401;26;20029;-73
2024/04/17 00:28:30;;;;;;;1999.90;999.90;;;10.20;99.90;;;;;;5312465;27;20034;-73
2024/04/17 00:30:56;;;;;;;1999.90;999.90;;;10.20;99.90;;;;;;5309804;26;20161;-72
2024/04/17 00:33:23;;;;;;;1999.90;999.90;;;10.10;99.90;;;;;;5312962;27;20025;-78
2024/04/17 00:35:50;;;;;;;1999.90;999.90;;;10.10;99.90;;;;;;5312573;26;20042;-80
2024/04/17 00:38:16;;;;;;;1999.90;999.90;;;10.10;99.90;;;;;;5312795;26;20038;-80
2024/04/17 00:40:42;;;;;;;1999.90;999.90;;;10.10;99.90;;;;;;5310095;26;20390;-80
2024/04/17 00:43:08;;;;;;;1999.90;999.90;;;10.00;99.90;;;;;;5312149;27;20026;-80
2024/04/17 00:45:38;;;;;;;1999.90;999.90;;;10.10;99.90;;;;;;5312361;26;20379;-79
2024/04/17 00:48:05;;;;;;;1999.90;999.90;;;10.00;99.90;;;;;;5312161;27;20029;-80
2024/04/17 00:50:31;;;;;;;1999.90;999.90;;;10.10;99.90;;;;;;5309908;26;20026;-80
2024/04/17 00:52:57;;;;;;;1999.90;999.90;;;10.00;99.90;;;;;;5310604;26;20374;-80
2024/04/17 00:55:24;;;;;;;1999.90;999.90;;;9.90;99.90;;;;;;5311735;26;20034;-80
2024/04/17 00:57:50;;;;;;;1999.90;999.90;;;9.90;99.90;;;;;;5310784;26;20021;-80
2024/04/17 01:00:16;;;;;;;540.45;288.52;;;9.90;99.90;;;;;;5310981;26;20080;-80
2024/04/17 01:02:42;;;;;;;56.17;53.53;;;9.90;99.90;;;;;;5311980;27;20041;-80
2024/04/17 01:05:08;;;;;;;35.42;33.72;;;9.70;99.90;;;;;;5311751;26;20038;-79
2024/04/17 01:07:35;;;;;;;532.45;280.90;;;9.70;99.90;;;;;;5311414;27;20045;-79
2024/04/17 01:10:01;;;;;;;35.90;34.20;;;9.60;99.90;;;;;;5312003;27;20018;-80
2024/04/17 01:12:27;;;;;;;53.33;50.78;;;9.70;99.90;;;;;;5311324;26;20033;-80
2024/04/17 01:14:53;;;;;;;57.45;54.05;;;9.70;99.90;;;;;;5312717;26;20572;-79
2024/04/17 01:17:19;;;;;;;53.70;51.15;;;9.80;99.90;;;;;;5310728;26;20388;-80
2024/04/17 01:19:45;;;;;;;57.17;54.45;;;9.80;99.90;;;;;;5309579;27;20033;-80
2024/04/17 01:22:11;;;;;;;40.80;38.88;;;9.80;99.90;;;;;;5310559;26;20478;-80
2024/04/17 01:24:38;;;;;;;46.92;44.70;;;9.80;99.90;;;;;;5310785;26;20037;-80
2024/04/17 01:27:04;;;;;;;37.28;35.53;;;9.80;99.90;;;;;;5311226;26;20451;-80
2024/04/17 01:29:31;;;;;;;38.53;36.70;;;9.80;99.90;;;;;;5311385;27;20362;-79
2024/04/17 01:31:57;;;;;;;43.97;41.90;;;9.70;99.90;;;;;;5310635;26;20157;-80
2024/04/17 01:34:25;;;;;;;40.22;38.33;;;9.80;99.90;;;;;;5311260;27;20034;-80
2024/04/17 01:36:52;;;;;;;82.28;78.15;;;9.80;99.90;;;;;;5310668;26;20368;-80
2024/04/17 01:39:18;;;;;;;67.45;64.10;;;9.70;99.90;;;;;;5311307;27;20050;-80
2024/04/17 01:41:44;;;;;;;63.22;60.13;;;9.70;99.90;;;;;;5309292;26;20406;-80
2024/04/17 01:44:10;;;;;;;44.25;42.10;;;9.70;99.90;;;;;;5311222;27;20021;-80
2024/04/17 01:46:37;;;;;;;55.83;53.08;;;9.60;99.90;;;;;;5325255;26;20032;-81
2024/04/17 01:49:03;;;;;;;71.03;67.47;;;9.60;99.90;;;;;;5345403;26;20033;-80
2024/04/17 01:51:29;;;;;;;81.05;76.85;;;9.60;99.90;;;;;;5345134;26;20028;-80
2024/04/17 01:53:55;;;;;;;69.03;65.65;;;9.70;99.90;;;;;;5344838;26;20044;-79
2024/04/17 01:56:21;;;;;;;38.83;36.97;;;9.70;99.90;;;;;;5328192;26;20025;-80
2024/04/17 01:58:47;;;;;;;56.42;53.75;;;9.70;99.90;;;;;;5312356;26;20038;-80
2024/04/17 02:01:13;;;;;;;64.82;61.67;;;9.70;99.90;;;;;;5310225;26;20042;-80
2024/04/17 02:03:40;;;;;;;69.20;65.82;;;9.60;99.90;;;;;;5323739;26;20036;-72
2024/04/17 02:06:06;;;;;;;71.18;67.68;;;9.60;99.90;;;;;;5327438;26;20019;-73
2024/04/17 02:08:32;;;;;;;63.83;60.67;;;9.60;99.90;;;;;;5327980;26;20037;-73
2024/04/17 02:10:58;;;;;;;71.15;67.13;;;9.60;99.90;;;;;;5327551;26;20037;-72
2024/04/17 02:13:24;;;;;;;70.15;66.65;;;9.60;99.90;;;;;;5309186;27;20026;-73
2024/04/17 02:15:50;;;;;;;56.72;53.95;;;9.60;99.90;;;;;;5323542;26;20149;-72
2024/04/17 02:18:16;;;;;;;57.85;55.00;;;9.60;99.90;;;;;;5309591;26;20029;-72
2024/04/17 02:20:42;;;;;;;49.10;46.67;;;9.60;99.90;;;;;;5308668;26;20050;-72
2024/04/17 02:23:08;;;;;;;78.38;73.78;;;9.50;99.90;;;;;;5317222;26;20033;-72
2024/04/17 02:25:34;;;;;;;56.08;53.30;;;9.60;99.90;;;;;;5336675;26;20822;-71
2024/04/17 02:28:01;;;;;;;73.47;69.80;;;9.60;99.90;;;;;;5309667;26;20038;-72
2024/04/17 02:30:27;;;;;;;72.22;68.75;;;9.50;99.90;;;;;;5308817;26;20365;-72
2024/04/17 02:32:53;;;;;;;70.13;66.65;;;9.50;99.90;;;;;;5309066;26;20022;-71
2024/04/17 02:35:19;;;;;;;65.47;62.22;;;9.50;99.90;;;;;;5309303;26;20373;-72
2024/04/17 02:37:45;;;;;;;45.72;43.45;;;9.50;99.90;;;;;;5344582;26;20032;-72
2024/04/17 02:40:12;;;;;;;47.20;44.83;;;9.50;99.90;;;;;;5344772;26;20068;-72
2024/04/17 02:42:38;;;;;;;89.07;84.68;;;9.50;99.90;;;;;;5345373;26;20372;-73
2024/04/17 02:45:04;;;;;;;68.68;65.28;;;9.50;99.90;;;;;;5344229;26;20101;-71
2024/04/17 02:47:31;;;;;;;42.30;40.15;;;9.50;99.90;;;;;;5337221;26;20034;-72
2024/04/17 02:49:57;;;;;;;33.42;31.75;;;9.50;99.90;;;;;;5344396;26;20428;-72
2024/04/17 02:52:24;;;;;;;41.58;39.47;;;9.50;99.90;;;;;;5343835;26;20036;-72
2024/04/17 02:54:50;;;;;;;49.30;46.83;;;9.50;99.90;;;;;;5345075;26;20029;-72
2024/04/17 02:57:16;;;;;;;42.53;40.42;;;9.50;99.90;;;;;;5314734;26;20037;-72
2024/04/17 02:59:42;;;;;;;50.85;48.20;;;9.50;99.90;;;;;;5310693;26;20022;-72
2024/04/17 03:02:08;;;;;;;42.92;40.75;;;9.50;99.90;;;;;;5309704;26;20046;-72
2024/04/17 03:04:34;;;;;;;70.10;66.70;;;9.50;99.90;;;;;;5311198;26;20025;-79
2024/04/17 03:07:00;;;;;;;33.80;32.13;;;9.50;99.90;;;;;;5282901;27;20486;-80
2024/04/17 03:09:26;;;;;;;43.78;41.63;;;9.50;99.90;;;;;;5314201;26;20063;-79
2024/04/17 03:11:52;;;;;;;37.85;35.95;;;9.50;99.90;;;;;;5312264;26;20426;-79
2024/04/17 03:14:18;;;;;;;40.30;38.33;;;9.30;99.90;;;;;;5313292;27;20021;-79
2024/04/17 03:16:47;;;;;;;38.20;36.33;;;9.40;99.90;;;;;;5312365;26;20363;-80
2024/04/17 03:19:13;;;;;;;64.47;61.33;;;9.40;99.90;;;;;;5312826;27;20033;-79
2024/04/17 03:21:39;;;;;;;47.80;45.47;;;9.30;99.90;;;;;;5311508;26;20021;-79
2024/04/17 03:24:05;;;;;;;45.55;43.28;;;9.20;99.90;;;;;;5314182;26;20026;-79
2024/04/17 03:26:31;;;;;;;50.10;47.60;;;9.20;99.90;;;;;;5312705;26;20045;-79
2024/04/17 03:28:57;;;;;;;51.35;48.75;;;9.20;99.90;;;;;;5311380;27;20045;-80
2024/04/17 03:31:23;;;;;;;71.75;68.22;;;9.30;99.90;;;;;;5313035;26;20502;-79
2024/04/17 03:33:49;;;;;;;55.90;53.15;;;9.30;99.90;;;;;;5312495;27;20033;-79
2024/04/17 03:36:15;;;;;;;75.85;72.10;;;9.30;99.90;;;;;;5312850;26;20029;-79
2024/04/17 03:38:42;;;;;;;106.05;100.72;;;9.30;99.90;;;;;;5313076;27;20029;-79
2024/04/17 03:41:08;;;;;;;75.47;71.68;;;9.30;99.90;;;;;;5312666;26;20034;-79
2024/04/17 03:43:34;;;;;;;117.45;111.63;;;9.30;99.90;;;;;;5313902;26;20029;-79
2024/04/17 03:46:03;;;;;;;127.72;121.40;;;9.20;99.90;;;;;;5316476;26;20369;-79
2024/04/17 03:48:29;;;;;;;81.53;77.47;;;9.20;99.90;;;;;;5347921;26;20373;-79
2024/04/17 03:50:55;;;;;;;65.13;61.88;;;9.20;99.90;;;;;;5346686;26;20111;-79
2024/04/17 03:53:21;;;;;;;80.95;76.95;;;9.20;99.90;;;;;;5345622;26;20033;-80
2024/04/17 03:55:47;;;;;;;50.85;48.28;;;9.20;99.90;;;;;;5337640;26;20029;-79
2024/04/17 03:58:13;;;;;;;87.63;83.25;;;9.10;99.90;;;;;;5312784;26;20022;-79
2024/04/17 04:00:40;;;;;;;121.03;114.68;;;9.10;99.90;;;;;;5311336;26;20042;-78
2024/04/17 04:03:06;;;;;;;85.90;81.45;;;9.10;99.90;;;;;;5311915;26;20047;-79
2024/04/17 04:05:32;;;;;;;83.15;78.95;;;9.10;99.90;;;;;;5312510;26;20467;-79
2024/04/17 04:07:58;;;;;;;56.58;53.72;;;9.10;99.90;;;;;;5313687;26;20034;-79
2024/04/17 04:10:24;;;;;;;69.53;65.97;;;9.00;99.90;;;;;;5312407;26;20636;-79
2024/04/17 04:12:50;;;;;;;88.18;83.60;;;9.10;99.90;;;;;;5312724;27;20025;-79
2024/04/17 04:15:16;;;;;;;92.30;87.50;;;9.10;99.90;;;;;;5310745;26;20471;-79
2024/04/17 04:17:42;;;;;;;97.97;92.93;;;9.10;99.90;;;;;;5312586;27;20104;-79
2024/04/17 04:20:08;;;;;;;79.00;74.80;;;9.10;99.90;;;;;;5310281;26;20490;-79
2024/04/17 04:22:37;;;;;;;93.53;88.43;;;9.10;99.90;;;;;;5312172;27;20398;-79
2024/04/17 04:25:05;;;;;;;127.95;121.28;;;9.10;99.90;;;;;;5312825;26;20022;-79
2024/04/17 04:27:31;;;;;;;101.50;96.18;;;9.00;99.90;;;;;;5311912;26;20037;-79
2024/04/17 04:29:57;;;;;;;83.82;79.55;;;8.90;99.90;;;;;;5313022;26;20037;-79
2024/04/17 04:32:23;;;;;;;80.97;76.72;;;9.00;99.90;;;;;;5311273;26;20033;-80
2024/04/17 04:34:49;;;;;;;65.60;62.35;;;8.90;99.90;;;;;;5313433;26;20053;-79
2024/04/17 04:37:16;;;;;;;68.10;64.75;;;9.00;99.90;;;;;;5312801;26;20049;-79
2024/04/17 04:39:42;;;;;;;65.63;62.38;;;9.00;99.90;;;;;;5312101;27;20495;-79
2024/04/17 04:42:08;;;;;;;68.55;65.18;;;9.00;99.90;;;;;;5311702;26;20030;-80
2024/04/17 04:44:34;;;;;;;68.07;64.65;;;9.00;99.90;;;;;;5311766;26;20039;-79
2024/04/17 04:47:01;;;;;;;71.25;67.68;;;8.90;99.90;;;;;;5330593;26;20041;-79
2024/04/17 04:49:30;;;;;;;59.08;56.13;;;8.90;99.90;;;;;;5347237;26;20496;-79
2024/04/17 04:51:56;;;;;;;50.80;48.28;;;8.90;99.90;;;;;;5346752;26;20029;-79
2024/04/17 04:54:22;;;;;;;61.60;58.58;;;8.90;99.90;;;;;;5347198;26;20025;-79
2024/04/17 04:56:50;;;;;;;80.78;76.80;;;8.80;99.90;;;;;;5346211;26;20036;-79
2024/04/17 04:59:17;;;;;;;69.78;66.18;;;8.80;99.90;;;;;;5346481;26;20026;-80
2024/04/17 05:01:43;;;;;;;63.80;60.47;;;8.80;99.90;;;;;;5322815;26;20045;-79
2024/04/17 05:04:09;;;;;;;73.05;69.43;;;8.80;99.90;;;;;;5312996;26;20030;-79
2024/04/17 05:06:35;;;;;;;128.82;122.47;;;8.80;99.90;;;;;;5311486;26;20026;-79
2024/04/17 05:09:01;;;;;;;122.25;115.22;;;8.80;99.90;;;;;;5312834;26;20033;-79
2024/04/17 05:11:28;;;;;;;133.30;126.72;;;8.80;99.90;;;;;;5309772;26;20366;-79
2024/04/17 05:13:54;;;;;;;145.13;138.00;;;8.80;99.90;;;;;;5312240;26;20030;-79
2024/04/17 05:16:20;;;;;;;138.52;131.68;;;8.80;99.90;;;;;;5312109;26;20054;-79
2024/04/17 05:18:46;;;;;;;61.47;58.42;;;8.80;99.90;;;;;;5312614;26;20369;-79
2024/04/17 05:21:13;;;;;;;152.00;144.40;;;8.70;99.90;;;;;;5311200;26;20029;-79
2024/04/17 05:23:39;;;;;;;109.07;103.75;;;8.70;99.90;;;;;;5312456;26;20033;-80
2024/04/17 05:26:05;;;;;;;147.52;140.18;;;8.70;99.90;;;;;;5324109;26;20033;-72
2024/04/17 05:28:31;;;;;;;97.20;92.43;;;8.60;99.90;;;;;;5344477;26;20033;-72
2024/04/17 05:30:58;;;;;;;98.03;93.10;;;8.60;99.90;;;;;;5334372;26;20042;-71
2024/04/17 05:33:24;;;;;;;77.22;73.43;;;8.60;99.90;;;;;;5312164;26;20021;-72
2024/04/17 05:35:50;;;;;;;55.15;52.45;;;8.50;99.90;;;;;;5311431;26;20495;-72
2024/04/17 05:38:16;;;;;;;84.95;80.78;;;8.50;99.90;;;;;;5311258;27;20030;-71
2024/04/17 05:40:46;;;;;;;144.02;136.85;;;8.50;99.90;;;;;;5311278;26;20045;-73
2024/04/17 05:43:14;;;;;;;79.20;75.35;;;8.50;99.90;;;;;;5311585;26;20149;-72
2024/04/17 05:45:40;;;;;;;79.80;75.93;;;8.60;99.90;;;;;;5309322;26;20026;-72
2024/04/17 05:48:06;;;;;;;126.50;120.28;;;8.70;99.90;;;;;;5346077;26;20029;-72
2024/04/17 05:50:32;;;;;;;97.65;90.55;;;8.80;99.90;;;;;;5345697;26;20378;-72
2024/04/17 05:52:58;;;;;;;100.63;95.70;;;8.90;99.90;;;;;;5345893;26;20025;-72
2024/04/17 05:55:25;;;;;;;69.35;65.90;;;8.90;99.90;;;;;;5342223;26;20507;-72
2024/04/17 05:57:52;;;;;;;74.53;70.88;;;9.10;99.90;;;;;;5311320;26;20366;-72
2024/04/17 06:00:19;;;;;;;60.25;57.25;;;9.30;99.90;;;;;;5310986;26;20025;-71
2024/04/17 06:02:45;;;;;;;85.30;81.07;;;9.50;99.90;;;;;;5311228;26;20025;-72
2024/04/17 06:05:11;;;;;;;71.00;67.50;;;9.70;99.90;;;;;;5311593;26;20363;-72
2024/04/17 06:07:40;;;;;;;56.17;53.35;;;10.00;99.90;;;;;;5311678;26;20037;-71
2024/04/17 06:10:06;;;;;;;51.80;49.22;;;10.20;99.90;;;;;;5310955;27;20025;-72
2024/04/17 06:12:33;;;;;;;571.15;317.60;;;10.40;99.90;;;;;;5310968;26;20037;-71
2024/04/17 06:14:59;;;;;;;76.80;72.82;;;10.70;99.90;;;;;;5311450;26;20026;-71
2024/04/17 06:17:25;;;;;;;79.22;75.30;;;10.80;99.90;;;;;;5310889;26;20374;-72
2024/04/17 06:19:52;;;;;;;1999.90;999.90;;;10.90;99.90;;;;;;5311053;27;20029;-72
2024/04/17 06:22:19;;;;;;;1999.90;999.90;;;11.10;99.90;;;;;;5310700;26;20042;-72
2024/04/17 06:24:45;;;;;;;1999.90;999.90;;;11.20;99.90;;;;;;5311388;26;20033;-72
2024/04/17 06:27:11;;;;;;;1999.90;999.90;;;11.30;99.90;;;;;;5309966;26;20034;-72
2024/04/17 06:29:37;;;;;;;1999.90;999.90;;;11.40;99.90;;;;;;5310455;27;20380;-79
2024/04/17 06:32:04;;;;;;;1999.90;999.90;;;11.60;99.90;;;;;;5308089;26;20042;-79
2024/04/17 06:34:31;;;;;;;1999.90;999.90;;;11.70;99.90;;;;;;5310464;27;20025;-79
2024/04/17 06:36:57;;;;;;;1999.90;999.90;;;11.90;99.90;;;;;;5310236;26;20037;-79
2024/04/17 06:39:23;;;;;;;1999.90;999.90;;;12.00;99.90;;;;;;5313399;26;20021;-80
2024/04/17 06:41:50;;;;;;;1999.90;999.90;;;12.10;99.90;;;;;;5312673;26;20025;-80
2024/04/17 06:44:16;;;;;;;1999.90;999.90;;;12.20;99.90;;;;;;5313792;27;20029;-80
2024/04/17 06:46:42;;;;;;;1999.90;999.90;;;12.30;99.90;;;;;;5327842;26;20482;-79
2024/04/17 06:49:08;;;;;;;1999.90;999.90;;;12.40;99.90;;;;;;5348619;26;20034;-80
2024/04/17 06:51:35;;;;;;;1999.90;999.90;;;12.50;99.90;;;;;;5347450;26;20066;-80
2024/04/17 06:54:01;;;;;;;1999.90;999.90;;;12.60;99.90;;;;;;5348096;26;20540;-79
2024/04/17 06:56:28;;;;;;;1999.90;999.90;;;12.60;99.90;;;;;;5329499;26;20373;-80
2024/04/17 06:59:03;;;;;;;1999.90;999.90;;;12.60;99.90;;;;;;5314656;26;20041;-79
2024/04/17 07:01:29;;;;;;;1999.90;999.90;;;12.70;99.90;;;;;;5312419;26;20033;-80
2024/04/17 07:03:55;;;;;;;1999.90;999.90;;;12.60;99.90;;;;;;5313143;26;20026;-80
2024/04/17 07:06:22;;;;;;;1999.90;999.90;;;12.60;99.90;;;;;;5313077;26;20084;-79
2024/04/17 07:08:48;;;;;;;1999.90;999.90;;;12.70;99.90;;;;;;5313340;26;20021;-80
2024/04/17 07:11:14;;;;;;;1999.90;999.90;;;12.80;99.90;;;;;;5312472;26;20033;-80
2024/04/17 07:13:40;;;;;;;1999.90;999.90;;;12.90;99.90;;;;;;5314216;26;20029;-80
2024/04/17 07:16:07;;;;;;;1999.90;999.90;;;12.90;99.90;;;;;;5313731;26;20037;-80
2024/04/17 07:18:34;;;;;;;1999.90;999.90;;;12.90;99.90;;;;;;5313031;27;20022;-80
2024/04/17 07:21:00;;;;;;;1999.90;999.90;;;13.00;99.90;;;;;;5313178;26;20383;-80
2024/04/17 07:23:27;;;;;;;1999.90;999.90;;;13.20;99.90;;;;;;5312959;26;20029;-80
2024/04/17 07:25:53;;;;;;;1999.90;999.90;;;13.50;99.90;;;;;;5313320;26;20041;-80
2024/04/17 07:28:19;;;;;;;1999.90;999.90;;;13.60;99.90;;;;;;5312923;27;20038;-80
2024/04/17 07:30:45;;;;;;;1999.90;999.90;;;13.80;99.90;;;;;;5313641;26;20045;-80
2024/04/17 07:33:11;;;;;;;1999.90;999.90;;;14.00;99.90;;;;;;5312848;26;20034;-80
2024/04/17 07:35:40;;;;;;;1999.90;999.90;;;14.10;99.90;;;;;;5312817;26;20033;-79
2024/04/17 07:38:09;;;;;;;1999.90;999.90;;;14.20;99.90;;;;;;5313582;26;20030;-80
2024/04/17 07:40:38;;;;;;;1999.90;999.90;;;14.20;99.90;;;;;;5313364;26;20033;-80
2024/04/17 07:43:04;;;;;;;1999.90;999.90;;;14.20;99.90;;;;;;5313771;26;20026;-81
2024/04/17 07:45:30;;;;;;;1999.90;999.90;;;14.10;99.90;;;;;;5311913;26;20086;-80
2024/04/17 07:47:56;;;;;;;1999.90;999.90;;;14.10;99.90;;;;;;5344026;26;20045;-81
2024/04/17 07:50:22;;;;;;;1999.90;999.90;;;14.20;99.90;;;;;;5345553;26;20029;-80
2024/04/17 07:52:49;;;;;;;1999.90;999.90;;;14.30;99.90;;;;;;5347009;26;20021;-80
2024/04/17 07:55:16;;;;;;;1999.90;999.90;;;14.40;99.90;;;;;;5345615;26;20029;-81
2024/04/17 07:57:42;;;;;;;1999.90;999.90;;;14.40;99.90;;;;;;5313583;26;20034;-72
2024/04/17 08:00:09;;;;;;;1999.90;999.90;;;14.40;99.90;;;;;;5312698;26;20031;-71
2024/04/17 08:02:35;;;;;;;1999.90;999.90;;;14.60;99.90;;;;;;5346793;26;20033;-72
2024/04/17 08:05:01;;;;;;;1999.90;999.90;;;14.50;99.90;;;;;;5347650;26;20032;-72
2024/04/17 08:07:28;;;;;;;1999.90;999.90;;;14.60;99.90;;;;;;5314279;26;20029;-71
2024/04/17 08:09:54;;;;;;;1999.90;999.90;;;14.80;99.90;;;;;;5312881;26;20021;-72
2024/04/17 08:12:20;;;;;;;1999.90;999.90;;;15.10;99.90;;;;;;5312633;26;20037;-72
2024/04/17 08:14:46;;;;;;;1999.90;999.90;;;14.90;99.90;;;;;;5312535;27;20025;-72
2024/04/17 08:17:12;;;;;;;1999.90;999.90;;;14.50;99.90;;;;;;5311726;26;20035;-72
2024/04/17 08:19:38;;;;;;;1999.90;999.90;;;14.50;99.90;;;;;;5311267;26;20034;-72
2024/04/17 08:22:04;;;;;;;1999.90;999.90;;;14.70;99.90;;;;;;5311510;26;20368;-72
2024/04/17 08:24:30;;;;;;;1999.90;999.90;;;14.60;99.90;;;;;;5313081;26;20030;-72
2024/04/17 08:26:56;;;;;;;1999.90;999.90;;;14.60;99.90;;;;;;5312006;26;20030;-72
2024/04/17 08:29:22;;;;;;;1999.90;999.90;;;14.50;99.90;;;;;;5312453;26;20475;-71
2024/04/17 08:31:49;;;;;;;1999.90;999.90;;;14.50;99.90;;;;;;5312156;26;20046;-72
2024/04/17 08:34:15;;;;;;;1999.90;999.90;;;14.50;99.90;;;;;;5312836;26;20029;-72
2024/04/17 08:36:41;;;;;;;1999.90;999.90;;;14.60;99.90;;;;;;5312000;26;20030;-72
2024/04/17 08:39:07;;;;;;;1999.90;999.90;;;14.90;99.90;;;;;;5312258;27;20497;-72
2024/04/17 08:41:34;;;;;;;1999.90;999.90;;;15.30;99.90;;;;;;5311792;26;20041;-72
2024/04/17 08:44:00;;;;;;;1999.90;999.90;;;15.60;99.90;;;;;;5312952;26;20420;-72
2024/04/17 08:46:28;;;;;;;1999.90;999.90;;;15.70;99.90;;;;;;5322535;26;20042;-72
2024/04/17 08:48:55;;;;;;;1999.90;999.90;;;15.40;99.90;;;;;;5346549;26;20024;-72
2024/04/17 08:51:23;;;;;;;1999.90;999.90;;;15.30;99.90;;;;;;5345228;26;20044;-72
2024/04/17 08:53:49;;;;;;;1999.90;999.90;;;15.30;99.90;;;;;;5316734;26;20373;-72
2024/04/17 08:56:16;;;;;;;1999.90;999.90;;;15.00;99.90;;;;;;5315779;26;20001;-71
2024/04/17 08:58:42;;;;;;;1999.90;999.90;;;14.60;99.90;;;;;;5344831;26;20044;-72
2024/04/17 09:01:08;;;;;;;1999.90;999.90;;;14.50;99.90;;;;;;5343302;26;20037;-79
2024/04/17 09:03:34;;;;;;;1999.90;999.90;;;14.50;99.90;;;;;;5315862;26;20025;-78
2024/04/17 09:06:00;;;;;;;1999.90;999.90;;;14.60;99.90;;;;;;5331866;26;20034;-79
2024/04/17 09:08:27;;;;;;;1999.90;999.90;;;14.60;99.90;;;;;;5281744;27;20021;-79
2024/04/17 09:10:54;;;;;;;1999.90;999.90;;;15.00;99.90;;;;;;5311913;26;20030;-80
2024/04/17 09:13:20;;;;;;;1999.90;999.90;;;15.20;99.90;;;;;;5310409;26;20021;-79
2024/04/17 09:15:47;;;;;;;1999.90;999.90;;;14.90;99.90;;;;;;5310866;26;20046;-80
2024/04/17 09:18:13;;;;;;;1999.90;999.90;;;14.80;99.90;;;;;;5312817;26;20474;-79
2024/04/17 09:20:39;;;;;;;1999.90;999.90;;;15.10;99.90;;;;;;5310798;26;20033;-80
2024/04/17 09:23:09;;;;;;;1999.90;999.90;;;15.40;99.90;;;;;;5281847;27;20367;-80
2024/04/17 09:25:36;;;;;;;1999.90;999.90;;;15.40;99.90;;;;;;5311377;26;20379;-81
2024/04/17 09:28:02;;;;;;;1999.90;999.90;;;14.70;99.90;;;;;;5311470;27;20022;-78
2024/04/17 09:30:28;;;;;;;1999.90;999.90;;;14.40;99.90;;;;;;5310664;26;20037;-79
2024/04/17 09:32:54;;;;;;;1999.90;999.90;;;14.60;99.90;;;;;;5311468;27;20204;-75
2024/04/17 09:35:21;;;;;;;1999.90;999.90;;;14.80;99.90;;;;;;5310664;26;20413;-79
2024/04/17 09:37:47;;;;;;;1999.90;999.90;;;15.10;99.90;;;;;;5280924;27;20025;-78
2024/04/17 09:40:13;;;;;;;1999.90;999.90;;;15.30;99.90;;;;;;5309473;26;20332;-78
2024/04/17 09:42:42;;;;;;;1999.90;999.90;;;15.40;99.90;;;;;;5311300;27;20025;-78
2024/04/17 09:45:15;;;;;;;1999.90;999.90;;;15.40;99.90;;;;;;5311436;26;20034;-77
2024/04/17 09:47:42;;;;;;;1999.90;999.90;;;15.10;99.90;;;;;;5340454;26;20540;-79
2024/04/17 09:50:11;;;;;;;1999.90;999.90;;;14.80;99.90;;;;;;5345044;26;20033;-79
2024/04/17 09:52:37;;;;;;;1999.90;999.90;;;14.90;99.90;;;;;;5281846;27;20033;-80
2024/04/17 09:55:03;;;;;;;1999.90;999.90;;;15.20;99.90;;;;;;5281049;27;20025;-79
2024/04/17 09:57:29;;;;;;;1999.90;999.90;;;15.30;99.90;;;;;;5309221;26;20030;-78
2024/04/17 09:59:55;;;;;;;1999.90;999.90;;;15.40;99.90;;;;;;5309348;27;20030;-78
2024/04/17 10:02:21;;;;;;;1999.90;999.90;;;15.30;99.90;;;;;;5279806;26;20482;-78
2024/04/17 10:04:49;;;;;;;1999.90;999.90;;;15.20;99.90;;;;;;5308788;27;20026;-78
2024/04/17 10:07:16;;;;;;;1999.90;999.90;;;15.00;99.90;;;;;;5281044;27;20033;-78
2024/04/17 10:09:42;;;;;;;1999.90;999.90;;;15.20;99.90;;;;;;5310936;26;20483;-78
2024/04/17 10:12:11;;;;;;;1999.90;999.90;;;15.10;99.90;;;;;;5311597;26;20041;-72
2024/04/17 10:14:40;;;;;;;1999.90;999.90;;;15.20;99.90;;;;;;5313318;27;20715;-72
2024/04/17 10:17:09;;;;;;;1999.90;999.90;;;15.10;99.90;;;;;;5313276;26;20581;-72
2024/04/17 10:19:36;;;;;;;1999.90;999.90;;;15.20;99.90;;;;;;5312171;27;20022;-72
2024/04/17 10:22:05;;;;;;;1999.90;999.90;;;15.40;99.90;;;;;;5312013;26;20034;-73
2024/04/17 10:24:32;;;;;;;1999.90;999.90;;;15.70;99.90;;;;;;5314759;26;20377;-73
2024/04/17 10:27:02;;;;;;;1999.90;999.90;;;15.80;99.90;;;;;;5313500;26;20033;-73
2024/04/17 10:29:29;;;;;;;1999.90;999.90;;;15.60;99.90;;;;;;5314306;27;20478;-73
2024/04/17 10:32:02;;;;;;;1999.90;999.90;;;15.50;99.90;;;;;;5313463;26;20033;-73
2024/04/17 10:34:29;;;;;;;1999.90;999.90;;;15.10;99.90;;;;;;5314091;26;20022;-73
2024/04/17 10:36:59;;;;;;;1999.90;999.90;;;14.90;99.90;;;;;;5313956;26;20029;-72
2024/04/17 10:39:26;;;;;;;1999.90;999.90;;;15.00;99.90;;;;;;5314031;27;20037;-72
2024/04/17 10:41:52;;;;;;;1999.90;999.90;;;15.10;99.90;;;;;;5313786;26;20033;-73
2024/04/17 10:44:22;;;;;;;1999.90;999.90;;;15.10;99.90;;;;;;5312188;27;20025;-72
2024/04/17 10:46:48;;;;;;;1999.90;999.90;;;15.10;99.90;;;;;;5329588;26;20037;-73
2024/04/17 10:49:17;;;;;;;1999.90;999.90;;;15.30;99.90;;;;;;5348145;26;20028;-73
2024/04/17 10:51:44;;;;;;;1999.90;999.90;;;15.20;99.90;;;;;;5347516;26;20032;-72
2024/04/17 10:54:13;;;;;;;1999.90;999.90;;;15.10;99.90;;;;;;5348355;26;20501;-71
2024/04/17 10:56:39;;;;;;;1999.90;999.90;;;15.10;99.90;;;;;;5324498;26;20026;-73
2024/04/17 10:59:06;;;;;;;1999.90;999.90;;;15.10;99.90;;;;;;5313855;27;20038;-73
2024/04/17 11:01:32;;;;;;;1999.90;999.90;;;15.30;99.90;;;;;;5312746;26;20049;-73
2024/04/17 11:03:58;;;;;;;1999.90;999.90;;;15.40;99.90;;;;;;5313791;26;20025;-74
2024/04/17 11:06:24;;;;;;;1999.90;999.90;;;15.60;99.90;;;;;;5312521;26;20049;-73
2024/04/17 11:08:52;;;;;;;1999.90;999.90;;;15.90;99.90;;;;;;5312243;27;20038;-73
2024/04/17 11:11:18;;;;;;;1999.90;999.90;;;16.10;99.90;;;;;;5283712;27;20037;-73
2024/04/17 11:13:45;;;;;;;1999.90;999.90;;;16.10;99.90;;;;;;5313849;26;20018;-73
2024/04/17 11:16:12;;;;;;;1999.90;999.90;;;16.20;99.90;;;;;;5312758;26;20455;-73
2024/04/17 11:18:38;;;;;;;1999.90;999.90;;;16.50;99.90;;;;;;5311784;27;20093;-73
2024/04/17 11:21:05;;;;;;;1999.90;999.90;;;16.60;99.90;;;;;;5282495;27;20029;-80
2024/04/17 11:23:41;;;;;;;1999.90;999.90;;;16.80;99.90;;;;;;5311553;27;20478;-80
2024/04/17 11:26:07;;;;;;;1999.90;999.90;;;17.00;99.90;;;;;;5311410;26;20037;-81
2024/04/17 11:28:33;;;;;;;1999.90;999.90;;;16.90;99.90;;;;;;5313102;26;20033;-82
2024/04/17 11:30:59;;;;;;;1999.90;999.90;;;16.70;99.90;;;;;;5309998;26;20037;-80
2024/04/17 11:33:26;;;;;;;1999.90;999.90;;;16.50;99.90;;;;;;5313838;26;20026;-80
2024/04/17 11:36:13;;;;;;;1999.90;999.90;;;16.30;99.90;;;;;;5311014;26;20365;-80
2024/04/17 11:38:45;;;;;;;1999.90;999.90;;;16.40;99.90;;;;;;5313345;26;20029;-82
2024/04/17 11:41:13;;;;;;;1999.90;999.90;;;16.30;99.90;;;;;;5313452;26;20034;-80
2024/04/17 11:43:43;;;;;;;1999.90;999.90;;;16.20;99.90;;;;;;5310377;27;20025;-81
2024/04/17 11:46:14;;;;;;;1999.90;999.90;;;16.50;99.90;;;;;;5318936;26;20493;-80
2024/04/17 11:48:40;;;;;;;1999.90;999.90;;;16.60;99.90;;;;;;5347221;26;20025;-81
2024/04/17 11:51:07;;;;;;;1999.90;999.90;;;16.70;99.90;;;;;;5347173;26;20065;-81
2024/04/17 11:53:33;;;;;;;1999.90;999.90;;;16.50;99.90;;;;;;5345065;26;20041;-80
2024/04/17 11:55:59;;;;;;;1999.90;999.90;;;16.60;99.90;;;;;;5335226;26;20033;-81
2024/04/17 11:58:26;;;;;;;1999.90;999.90;;;16.60;99.90;;;;;;5312619;27;20025;-80
2024/04/17 12:00:52;;;;;;;1999.90;999.90;;;16.80;99.90;;;;;;5310155;26;20045;-81
2024/04/17 12:03:20;;;;;;;1999.90;999.90;;;16.80;99.90;;;;;;5312912;26;20407;-81
2024/04/17 12:05:47;;;;;;;1999.90;999.90;;;16.70;99.90;;;;;;5313102;26;20045;-80
2024/04/17 12:08:14;;;;;;;1999.90;999.90;;;16.50;99.90;;;;;;5312951;27;20026;-81
2024/04/17 12:10:40;;;;;;;1999.90;999.90;;;16.20;99.90;;;;;;5311923;26;20478;-81